• Join FlightAware (Why Join?)
  • Login
  • US Flag 
03:13AM EST


 

Airport Tracker/Info


-or-


 

Live Flight TrackerFlight Track Log ✈ SWA1377 ✈ 03-May-2013 ✈ KMDW - KBUF

Flight Track Log - Related Links

Times and Time Zones

All times are in EDT time to prevent confusion due to time zone crossing. See the SWA1377 flight status page for this flight to view local times or setup timezone preferences in your user account.

Time Position Orientation Groundspeed Altitude Reporting Facility
EDT Latitude Longitude Course Direction KTS MPH feet Rate Location/Type
10:34AM 41.8000 -87.7667 90° East 149 171 1,900  Level Chicago TRACON
10:35AM 41.8333 -87.7167 48° Northeast 221 254 3,400 1,475 Climbing Chicago TRACON
10:36AM 41.8369 -87.6247 87° East 243 280 4,900 1,610 Climbing Chicago Center
10:37AM 41.8483 -87.5261 81° East 256 295 6,700 2,468 Climbing Chicago Center
10:38AM 41.8342 -87.4278 101° East 270 311 10,000 3,387 Climbing Chicago Center
10:39AM 41.8133 -87.3244 105° East 283 326 13,700 3,194 Climbing Chicago Center
10:40AM 41.7500 -86.9166 90° East  Level FlightAware Approximate
10:40AM 41.7911 -87.2156 105° East 297 342 16,600  Level Chicago Center
10:41AM 41.7631 -87.0678 104° East 345 397 19,100 2,419 Climbing Chicago Center
10:42AM 41.7631 -86.9261 90° East 378 435 21,600 2,274 Climbing Chicago Center
10:43AM 41.7639 -86.7789 90° East 392 451 23,800 2,177 Climbing Chicago Center
10:44AM 41.7669 -86.6133 89° East 410 472 26,100 2,081 Climbing Chicago Center
10:45AM 41.7675 -86.4533 90° East 426 490 28,100 1,887 Climbing Chicago Center
10:47AM 41.7725 -86.2903 88° East 438 504 30,000 2,049 Climbing Chicago Center
10:48AM 41.8011 -86.1306 76° East 440 506 32,300 1,805 Climbing Chicago Center
10:49AM 41.8292 -85.9656 77° East 449 517 33,700 1,306 Climbing Chicago Center
10:50AM 41.8572 -85.7989 77° East 456 525 35,000 629 Climbing Chicago Center
10:51AM 41.8856 -85.6314 77° East 457 526 35,000  Level Chicago Center
10:52AM 41.9131 -85.4631 78° East 457 526 35,000  Level Chicago Center
10:52AM 41.9333 -85.3597 75° East 448 516 35,000  Level Cleveland Center
10:53AM 41.9547 -85.1964 80° East 448 516 35,000  Level Cleveland Center
10:54AM 41.9528 -85.0314 91° East 443 510 35,000  Level Cleveland Center
10:55AM 41.9531 -84.8639 90° East 438 504 35,000  Level Cleveland Center
10:56AM 41.9508 -84.6989 91° East 443 510 35,000  Level Cleveland Center
10:57AM 41.9483 -84.5311 91° East 443 510 35,000  Level Cleveland Center
10:58AM 41.9489 -84.3861 90° East 443 510 35,000  Level Cleveland Center
10:59AM 41.9439 -84.2211 92° East 443 510 35,000  Level Cleveland Center
11:00AM 41.9408 -84.0533 91° East 443 510 35,000  Level Cleveland Center
11:01AM 41.9372 -83.8911 92° East 443 510 35,000  Level Cleveland Center
11:02AM 41.9358 -83.7208 91° East 443 510 35,000  Level Cleveland Center
11:03AM 41.9344 -83.5364 91° East 443 510 35,000  Level Cleveland Center
11:04AM 41.9322 -83.3689 91° East 443 510 35,000  Level Cleveland Center
11:05AM 41.9339 -83.2181 89° East 443 510 35,000  Level Cleveland Center
11:06AM 41.9292 -83.0478 92° East 443 510 35,000  Level Cleveland Center
11:07AM 41.9286 -82.8831 90° East 443 510 35,000  Level Cleveland Center
11:08AM 41.9275 -82.7156 90° East 443 510 35,000  Level Cleveland Center
11:09AM 41.9242 -82.5506 92° East 443 510 35,000  Level Cleveland Center
11:10AM 41.9250 -82.3889 90° East 438 504 35,000  Level Cleveland Center
11:11AM 41.9189 -82.2239 93° East 438 504 35,000  Level Cleveland Center
11:12AM 41.9194 -82.0453 90° East 438 504 35,000  Level Cleveland Center
11:13AM 41.9172 -81.8806 91° East 438 504 35,000 -450 Level Cleveland Center
11:14AM 41.9439 -81.7194 77° East 438 504 34,100 -950 Descending Cleveland Center
11:15AM 41.9808 -81.5608 73° East 443 510 33,100 -1,000 Descending Cleveland Center
11:16AM 42.0111 -81.3992 76° East 443 510 32,100 -1,050 Descending Cleveland Center
11:17AM 42.0289 -81.2428 81° East 436 502 31,000 -950 Descending Cleveland Center
11:18AM 42.0422 -81.1003 83° East 429 494 30,200 -900 Descending Cleveland Center
11:19AM 42.0572 -80.9467 82° East 424 488 29,200 -1,050 Descending Cleveland Center
11:20AM 42.0703 -80.7903 84° East 424 488 28,100 -1,050 Descending Cleveland Center
11:21AM 42.0808 -80.6419 84° East 414 476 27,100 -992 Descending Cleveland Center
11:22AM 42.0956 -80.4964 82° East 398 458 26,100 -992 Descending Cleveland Center
11:23AM 42.1369 -80.3481 69° East 387 445 25,100 -1,008 Descending Cleveland Center
11:24AM 42.1825 -80.2133 65° Northeast 387 445 24,100 -1,059 Descending Cleveland Center
11:25AM 42.2258 -80.0869 65° Northeast 377 434 23,000 -1,400 Descending Cleveland Center
11:26AM 42.2669 -79.9658 65° Northeast 370 426 21,300 -1,750 Descending Cleveland Center
11:27AM 42.3058 -79.8447 66° East 354 407 19,500 -1,750 Descending Cleveland Center
11:28AM 42.3403 -79.7378 66° East 354 407 17,800 -1,650 Descending Cleveland Center
11:29AM 42.3750 -79.6247 67° East 339 390 16,200 -1,700 Descending Cleveland Center
11:30AM 42.4136 -79.5089 66° East 334 384 14,400 -1,750 Descending Cleveland Center
11:31AM 42.4481 -79.4014 66° East 322 371 12,700 -1,450 Descending Cleveland Center
11:32AM 42.4903 -79.2822 64° Northeast 317 365 11,500 -1,300 Descending Cleveland Center
11:33AM 42.5481 -79.2136 41° Northeast 283 326 10,100 -1,587 Descending Cleveland Center
11:34AM 42.6244 -79.1694 23° Northeast 283 326 8,300 -1,550 Descending Cleveland Center
11:35AM 42.6886 -79.1258 27° Northeast 290 334 7,000 -655 Descending Cleveland Center
11:36AM 42.7611 -79.0789 25° Northeast 290 334 7,000 -300 Level Cleveland Center
11:37AM 42.8331 -79.0175 32° Northeast 279 321 6,400 -500 Descending Cleveland Center
11:38AM 42.8925 -78.9481 41° Northeast 272 313 6,000 -200 Descending Cleveland Center
11:39AM 42.9458 -78.8872 40° Northeast 258 297 6,000 -91 Level Cleveland Center
11:40AM 43.0000 -78.8167 44° Northeast 204 235 5,800 -478 Descending Buffalo TRACON
11:41AM 43.0500 -78.7667 36° Northeast 183 211 4,900 -952 Descending Buffalo TRACON
11:42AM 43.0333 -78.7167 114° Southeast 148 170 3,800 -1,250 Descending Buffalo TRACON
11:43AM 43.0167 -78.6833 124° Southeast 129 148 2,400 -1,150 Descending Buffalo TRACON
11:44AM 42.9833 -78.6833 180° South 133 153 1,500 -800 Descending Buffalo TRACON
11:45AM 42.9500 -78.7167 216° Southwest 139 160 800 -700 Descending Buffalo TRACON